Rumney, New Hampshire
Current Conditions -  °F | °C
As of 3:55 AM on Friday 28 Nov 2014 (Local Time) from K1P1 Reporting Station
Light Snow Light Snow  
Wind Chill: -3°   Ceiling: 800
Heat Index: -3°   Visibility: 1.7mi
Dew Point: -4°   Wind: 0mph
Humidity: 100%   Direction: NA
Pressure: 30"   Gusts: NA
Location:  43.81°N, 71.81°W
Report Text: K1P1 280855Z AUTO 00000KT 1 3/4SM -SN BKN008 BKN013 OVC025 M03/M03 A3000 RMK AO2 T10351035
Loading
Personal Weather Stations






























Interactive Weather Map New forecast layout! Learn more

10-Day Weather Forecast

Advertisements
Track Severe Weather on mobile